Espanola, NM

9:47 PM MDT on May 23, 2015 (GMT -0600)
Fairview- Prof D | | Change Station
CLOSE
Current Station
Personal Weather Station
Location: Espanola, NM
Elevation: 5670 ft
Nearby Weather Stations

Elev 5670 ft 36.00 °N, 106.05 °W | Updated 15 seconds ago

Partly Cloudy
Partly Cloudy
54.9 °F
Feels Like 54.9 °F
N
0.0
Wind Variable Wind from ENE
Gusts 2.0 mph

Today
High -- | Low -- °F
--% Chance of Precip.
Yesterday
High -- | Low -- °F
Precip. -- in
5:53 AM 8:09 PM
Waxing Crescent, 35% visible
Pressure 30.02 in
Visibility 10.0 miles
Clouds Clear
Dew Point 32 °F
Humidity 41%
Rainfall 0.00 in
Snow Depth Not available.
UV 0 out of 12
Pollen 4.90 out of 12
Air Quality Not available.
Flu Activity Local Activity
METAR KLAM 240335Z AUTO 29008KT 10SM CLR 11/M05 A3002 RMK AO2 T01131052

More Conditions Fewer Conditions

Pressure 30.02 in
Visibility 10.0 miles
Clouds Clear
Dew Point 32 °F
Humidity 41%
Rainfall 0.00 in
Snow Depth Not available.
UV 0 out of 12
Pollen 4.90 out of 12
Air Quality Not available.
Flu Activity Local Activity
METAR KLAM 240335Z AUTO 29008KT 10SM CLR 11/M05 A3002 RMK AO2 T01131052

More Conditions Fewer Conditions

Nowcast | as of 6:52 PM MDT on May 23, 2015

Through mid evening a few showers and occasionally a short lived thunderstorm or two will move to the east and northeast at 15 to 20 mph across locales near and especially west of a line from Cimarron to the Bosque del Apache. Due to the dryness of the atmosphere much of the precipitation will not reach the ground...but in the most significant showers and short lived storms a few hundredths of an inch of rain may reach the ground. Of more concern is the potential of the stronger activity to produce brief sudden wind gusts up to 40 mph along with a lightning strike or two. At the higher elevations...mainly above 9000 feet...a little snow will fall at times...but any accumulations should for the most part remain under an inch through mid evening. Close to The Four Corners itself there may be some increase in shower activity during the evening.

×

10-Day Weather Forecast

Almanac

Astronomy

May. 23, 2015 Rise Set
Actual Time
Civil Twilight
Nautical Twilight
Astronomical Twilight
Moon
Length of Visible Light
Length of Day
Tomorrow will be .
, % of the Moon is Illuminated

Today's Extremes

State Highs State Lows

Community

WunderPhotos

Upload Photos

1,823,678 photos uploaded!

WunderBlogs® & News

Nearby

Air Quality

  Air Quality AQ Index Pollutant
Not available.

Snow Depth

Station Depth Elevation

Earthquake Activity

City Distance Mag. Time & Date
Minimum magnitude displayed is 2.5.

Coastal Water Temperatures

Place Temperature

Stations

Nearby Weather Stations

Station Location Temp. Windchill Dew Point Humidity Wind Precip. Elev Updated Type